createdAt,value
2023-02-02T07:31:59.514Z,24.52
2023-02-02T07:32:59.641Z,24.67
2023-02-02T07:33:59.269Z,24.75
2023-02-02T07:34:59.277Z,24.81
2023-02-02T07:35:59.150Z,24.83
2023-02-02T07:36:59.057Z,24.84
2023-02-02T07:37:59.009Z,24.85
2023-02-02T07:38:58.968Z,24.87
2023-02-02T07:39:58.913Z,24.87
2023-02-02T07:40:58.749Z,24.93
2023-02-02T07:41:58.642Z,24.98
2023-02-02T07:42:58.560Z,25.01
2023-02-02T07:45:27.599Z,25.08
2023-02-02T07:46:03.542Z,25.16
2023-02-02T07:47:41.710Z,25.21
2023-02-02T07:48:41.667Z,25.21
2023-02-02T07:50:15.977Z,25.31
2023-02-02T07:52:07.958Z,25.29
2023-02-02T07:53:07.871Z,25.32
2023-02-02T07:55:14.005Z,25.23
2023-02-02T07:56:00.974Z,25.23
2023-02-02T07:56:59.938Z,25.26
2023-02-02T08:00:20.040Z,25.28
2023-02-02T08:01:20.076Z,25.30
2023-02-02T08:02:19.948Z,25.36
2023-02-02T08:03:19.892Z,25.42
2023-02-02T08:05:22.698Z,25.44
2023-02-02T08:06:22.224Z,25.32
2023-02-02T08:07:22.281Z,25.13
2023-02-02T08:08:22.263Z,24.90
2023-02-02T08:09:22.219Z,24.75
2023-02-02T08:10:22.194Z,24.60
2023-02-02T08:11:22.185Z,25.33
2023-02-02T08:12:24.126Z,25.13
2023-02-02T08:13:22.392Z,25.07
2023-02-02T08:14:22.420Z,24.75
2023-02-02T08:15:22.523Z,24.54
2023-02-02T08:16:22.590Z,24.35
2023-02-02T08:17:22.637Z,24.26
2023-02-02T08:18:22.624Z,24.16
2023-02-02T08:19:22.660Z,24.08
2023-02-02T08:20:22.743Z,24.01
2023-02-02T08:21:22.745Z,23.99
2023-02-02T08:22:22.823Z,23.95
2023-02-02T08:23:22.847Z,23.95
2023-02-02T08:24:23.208Z,23.95
2023-02-02T08:25:23.355Z,23.98
2023-02-02T08:26:23.132Z,23.96
